Time;durP1;ratioP1;P1;durP2;ratioP2;P2;SDS_P1;SDS_P2;PMS_P1;PMS_P2;Temp;Humidity;BMP_temperature;BMP_pressure;BME280_temperature;BME280_humidity;BME280_pressure;Samples;Min_cycle;Max_cycle;Signal;HPM_P1;HPM_P2
2022/05/11 00:00:11;;;;;;;;;;;24.60;43.10;;;;;;1570126;75;1820;-69
2022/05/11 00:02:13;;;;;;;;;;;24.60;43.10;;;;;;1573713;75;737;-71
2022/05/11 00:04:15;;;;;;;;;;;24.60;43.10;;;;;;1569463;74;1121;-71
2022/05/11 00:06:17;;;;;;;;;;;24.60;43.20;;;;;;1573834;75;583;-71
2022/05/11 00:08:19;;;;;;;;;;;24.60;43.30;;;;;;1571303;75;688;-71
2022/05/11 00:10:21;;;;;;;;;;;24.60;43.30;;;;;;1568209;76;1942;-71
2022/05/11 00:12:23;;;;;;;;;;;24.60;43.30;;;;;;1569715;75;750;-70
2022/05/11 00:14:25;;;;;;;;;;;24.60;43.30;;;;;;1570950;75;1171;-70
2022/05/11 00:16:27;;;;;;;;;;;24.60;43.30;;;;;;1571380;74;731;-71
2022/05/11 00:18:29;;;;;;;;;;;24.60;43.30;;;;;;1581302;74;712;-70
2022/05/11 00:20:31;;;;;;;;;;;24.50;43.30;;;;;;1591255;74;1529;-71
2022/05/11 00:22:33;;;;;;;;;;;24.50;43.40;;;;;;1586202;74;716;-71
2022/05/11 00:24:36;;;;;;;;;;;24.60;43.30;;;;;;1566081;74;1177;-71
2022/05/11 00:26:38;;;;;;;;;;;24.50;43.30;;;;;;1572526;75;686;-71
2022/05/11 00:28:40;;;;;;;;;;;24.50;43.40;;;;;;1571724;75;752;-71
2022/05/11 00:30:42;;;;;;;;;;;24.50;43.40;;;;;;1558261;75;1940;-69
2022/05/11 00:32:44;;;;;;;;;;;24.60;43.40;;;;;;1552398;75;701;-71
2022/05/11 00:34:45;;;;;;;;;;;24.50;43.40;;;;;;1571549;75;1120;-70
2022/05/11 00:36:47;;;;;;;;;;;24.50;43.40;;;;;;1571702;74;774;-70
2022/05/11 00:38:49;;;;;;;;;;;24.50;43.40;;;;;;1571168;74;1607;-70
2022/05/11 00:40:52;;;;;;;;;;;24.50;43.50;;;;;;1568961;74;744;-70
2022/05/11 00:42:54;;;;;;;;;;;24.50;43.40;;;;;;1570096;75;479;-70
2022/05/11 00:44:56;;;;;;;;;;;24.50;43.30;;;;;;1562585;75;1088;-67
2022/05/11 00:46:58;;;;;;;;;;;24.50;43.30;;;;;;1584557;75;1002;-70
2022/05/11 00:51:21;;;;;;;;;;;24.60;43.30;;;;;;1584417;75;1890;-70
2022/05/11 00:53:23;;;;;;;;;;;24.50;43.30;;;;;;1577304;75;1149;-70
2022/05/11 00:55:27;;;;;;;;;;;24.50;43.30;;;;;;1587701;74;745;-70
2022/05/11 00:57:31;;;;;;;;;;;24.50;43.30;;;;;;1586411;74;735;-70
2022/05/11 00:59:34;;;;;;;;;;;24.50;43.20;;;;;;1582482;74;733;-69
2022/05/11 01:01:36;;;;;;;;;;;24.50;43.20;;;;;;1570545;75;688;-69
2022/05/11 01:03:42;;;;;;;;;;;24.50;43.20;;;;;;1570582;75;1146;-70
2022/05/11 01:05:44;;;;;;;;;;;24.50;43.20;;;;;;1545155;77;538;-70
2022/05/11 01:07:46;;;;;;;;;;;24.50;43.30;;;;;;1545297;77;634;-71
2022/05/11 01:09:48;;;;;;;;;;;24.50;43.20;;;;;;1570898;74;725;-70
2022/05/11 01:11:51;;;;;;;;;;;24.50;43.20;;;;;;1571125;75;1930;-70
2022/05/11 01:13:53;;;;;;;;;;;24.50;43.10;;;;;;1593701;74;1158;-69
2022/05/11 01:15:54;;;;;;;;;;;24.50;43.10;;;;;;1592421;74;1479;-70
2022/05/11 01:17:57;;;;;;;;;;;24.50;43.10;;;;;;1587119;74;771;-70
2022/05/11 01:19:59;;;;;;;;;;;24.50;43.10;;;;;;1570537;75;563;-71
2022/05/11 01:22:06;;;;;;;;;;;24.50;43.20;;;;;;1571667;75;598;-71
2022/05/11 01:24:10;;;;;;;;;;;24.50;43.10;;;;;;1571694;75;1147;-71
2022/05/11 01:26:13;;;;;;;;;;;24.50;43.10;;;;;;1559845;75;1027;-71
2022/05/11 01:28:16;;;;;;;;;;;24.50;43.10;;;;;;1571676;74;753;-70
2022/05/11 01:30:19;;;;;;;;;;;24.50;43.10;;;;;;1570529;74;1947;-70
2022/05/11 01:32:21;;;;;;;;;;;24.50;43.10;;;;;;1568663;74;708;-70
2022/05/11 01:34:24;;;;;;;;;;;24.50;43.10;;;;;;1568004;75;1561;-71
2022/05/11 01:36:28;;;;;;;;;;;24.50;43.00;;;;;;1568089;75;688;-71
2022/05/11 01:38:32;;;;;;;;;;;24.50;43.10;;;;;;1599447;74;649;-70
2022/05/11 01:40:33;;;;;;;;;;;24.50;43.00;;;;;;1597961;74;777;-69
2022/05/11 01:42:35;;;;;;;;;;;24.50;43.10;;;;;;1571941;74;632;-71
2022/05/11 01:44:37;;;;;;;;;;;24.50;43.00;;;;;;1594919;72;233535;-70
2022/05/11 01:46:39;;;;;;;;;;;24.50;43.00;;;;;;1634769;72;657;-71
2022/05/11 01:48:41;;;;;;;;;;;24.50;42.90;;;;;;1623029;73;609;-70
2022/05/11 01:50:43;;;;;;;;;;;24.50;42.80;;;;;;1623036;73;1924;-70
2022/05/11 01:52:45;;;;;;;;;;;24.40;42.80;;;;;;1623101;73;644;-72
2022/05/11 01:54:47;;;;;;;;;;;24.50;42.80;;;;;;1604716;72;1192;-71
2022/05/11 01:56:49;;;;;;;;;;;24.50;42.80;;;;;;1622418;73;506;-71
2022/05/11 01:58:50;;;;;;;;;;;24.40;42.70;;;;;;1623029;73;671;-72
2022/05/11 02:00:52;;;;;;;;;;;24.40;42.80;;;;;;1623063;73;491;-70
2022/05/11 02:02:54;;;;;;;;;;;24.40;42.80;;;;;;1613864;73;658;-69
2022/05/11 02:09:36;;;;;;;;;;;24.40;42.80;;;;;;1622966;73;1628;-71
2022/05/11 02:11:38;;;;;;;;;;;24.40;42.70;;;;;;1621322;73;1948;-71
2022/05/11 02:13:40;;;;;;;;;;;24.40;42.70;;;;;;1611409;73;743;-73
2022/05/11 02:15:41;;;;;;;;;;;24.50;42.80;;;;;;1622791;72;1122;-71
2022/05/11 02:17:43;;;;;;;;;;;24.40;42.70;;;;;;1623116;73;691;-71
2022/05/11 02:19:45;;;;;;;;;;;24.50;42.80;;;;;;1623423;73;723;-72
2022/05/11 02:21:47;;;;;;;;;;;24.40;42.80;;;;;;1622976;73;716;-71
2022/05/11 02:23:50;;;;;;;;;;;24.40;42.70;;;;;;1622099;72;1118;-71
2022/05/11 02:25:52;;;;;;;;;;;24.40;42.80;;;;;;1620832;72;679;-70
2022/05/11 02:27:54;;;;;;;;;;;24.40;42.80;;;;;;1621349;72;678;-72
2022/05/11 02:29:56;;;;;;;;;;;24.40;42.80;;;;;;1610486;72;674;-71
2022/05/11 02:31:58;;;;;;;;;;;24.40;42.80;;;;;;1618767;72;1916;-71
2022/05/11 02:34:02;;;;;;;;;;;24.40;42.90;;;;;;1619317;72;1130;-71
2022/05/11 02:36:03;;;;;;;;;;;24.40;43.00;;;;;;1621291;73;1477;-72
2022/05/11 02:38:07;;;;;;;;;;;24.30;43.10;;;;;;1621637;73;665;-71
2022/05/11 02:40:09;;;;;;;;;;;24.40;43.00;;;;;;1621473;73;678;-70
2022/05/11 02:42:11;;;;;;;;;;;24.30;43.10;;;;;;1621834;73;648;-71
2022/05/11 02:44:13;;;;;;;;;;;24.40;43.10;;;;;;1615740;73;1171;-71
2022/05/11 02:46:15;;;;;;;;;;;24.40;43.00;;;;;;1615511;72;763;-71
2022/05/11 02:48:17;;;;;;;;;;;24.40;43.10;;;;;;1622622;73;647;-72
2022/05/11 02:50:21;;;;;;;;;;;24.40;43.20;;;;;;1610905;73;593;-72
2022/05/11 02:52:23;;;;;;;;;;;24.50;43.30;;;;;;1610265;73;1931;-71
2022/05/11 02:54:25;;;;;;;;;;;24.40;43.30;;;;;;1621425;72;1120;-74
2022/05/11 02:56:27;;;;;;;;;;;24.40;43.30;;;;;;1622927;72;724;-72
2022/05/11 02:58:32;;;;;;;;;;;24.40;43.30;;;;;;1623073;73;640;-73
2022/05/11 03:00:34;;;;;;;;;;;24.40;43.30;;;;;;1622941;73;725;-74
2022/05/11 03:02:36;;;;;;;;;;;24.40;43.30;;;;;;1622859;73;742;-72
2022/05/11 03:04:38;;;;;;;;;;;24.30;43.30;;;;;;1620248;72;1153;-71
2022/05/11 03:06:42;;;;;;;;;;;24.40;43.40;;;;;;1623000;73;576;-72
2022/05/11 03:08:44;;;;;;;;;;;24.40;43.40;;;;;;1637659;72;1602;-69
2022/05/11 03:10:47;;;;;;;;;;;24.40;43.50;;;;;;1634759;72;1910;-73
2022/05/11 03:12:49;;;;;;;;;;;24.40;43.50;;;;;;1641129;72;645;-71
2022/05/11 03:14:57;;;;;;;;;;;24.40;43.50;;;;;;1619551;72;1079;-66
2022/05/11 03:16:55;;;;;;;;;;;24.40;43.40;;;;;;1621979;73;1398;-66
2022/05/11 03:18:59;;;;;;;;;;;24.40;43.50;;;;;;1614183;73;697;-68
2022/05/11 03:21:00;;;;;;;;;;;24.40;43.60;;;;;;1622726;73;1455;-66
2022/05/11 03:23:02;;;;;;;;;;;24.40;43.60;;;;;;1622652;73;652;-68
2022/05/11 03:25:04;;;;;;;;;;;24.30;43.60;;;;;;1622643;72;1154;-67
2022/05/11 03:27:06;;;;;;;;;;;24.40;43.60;;;;;;1629428;72;1531;-67
2022/05/11 03:29:08;;;;;;;;;;;24.40;43.70;;;;;;1634955;72;722;-68
2022/05/11 03:31:10;;;;;;;;;;;24.40;43.70;;;;;;1620011;73;1944;-67
2022/05/11 03:35:32;;;;;;;;;;;24.40;43.90;;;;;;1621484;72;1664;-67
2022/05/11 03:37:34;;;;;;;;;;;24.30;43.90;;;;;;1621615;73;654;-66
2022/05/11 03:39:36;;;;;;;;;;;24.30;43.90;;;;;;1609893;73;653;-66
2022/05/11 03:41:37;;;;;;;;;;;24.30;43.90;;;;;;1594887;73;522;-67
2022/05/11 03:43:39;;;;;;;;;;;24.30;43.90;;;;;;1594814;74;656;-67
2022/05/11 03:45:41;;;;;;;;;;;24.30;43.90;;;;;;1614313;72;1053;-68
2022/05/11 03:47:43;;;;;;;;;;;24.30;43.90;;;;;;1621341;73;725;-66
2022/05/11 03:49:45;;;;;;;;;;;24.30;43.90;;;;;;1622106;73;751;-67
2022/05/11 03:51:47;;;;;;;;;;;24.30;44.00;;;;;;1620506;72;1979;-66
2022/05/11 03:53:49;;;;;;;;;;;24.30;43.90;;;;;;1621432;72;1111;-66
2022/05/11 03:55:51;;;;;;;;;;;24.30;44.00;;;;;;1622226;73;685;-67
2022/05/11 03:57:53;;;;;;;;;;;24.30;44.00;;;;;;1623079;72;714;-67
2022/05/11 03:59:55;;;;;;;;;;;24.20;43.90;;;;;;1617725;73;681;-67
2022/05/11 04:01:57;;;;;;;;;;;24.30;44.10;;;;;;1622370;73;679;-66
2022/05/11 04:03:58;;;;;;;;;;;24.30;44.00;;;;;;1622776;72;1564;-68
2022/05/11 04:06:00;;;;;;;;;;;24.30;44.00;;;;;;1617008;73;708;-69
2022/05/11 04:08:02;;;;;;;;;;;24.20;43.90;;;;;;1612296;73;666;-69
2022/05/11 04:10:04;;;;;;;;;;;24.30;44.00;;;;;;1622875;73;710;-69
2022/05/11 04:12:07;;;;;;;;;;;24.20;43.90;;;;;;1622754;73;1931;-69
2022/05/11 04:14:09;;;;;;;;;;;24.20;43.90;;;;;;1614814;72;1097;-66
2022/05/11 04:16:10;;;;;;;;;;;24.30;44.10;;;;;;1621114;72;691;-68
2022/05/11 04:18:12;;;;;;;;;;;24.30;44.20;;;;;;1623109;73;711;-69
2022/05/11 04:20:15;;;;;;;;;;;24.20;44.10;;;;;;1596761;73;689;-69
2022/05/11 04:22:17;;;;;;;;;;;24.30;44.20;;;;;;1623239;72;658;-68
2022/05/11 04:24:19;;;;;;;;;;;24.30;44.20;;;;;;1635902;70;1390;-68
2022/05/11 04:26:21;;;;;;;;;;;24.20;44.10;;;;;;1633062;72;698;-69
2022/05/11 04:28:23;;;;;;;;;;;24.20;44.10;;;;;;1618731;72;686;-67
2022/05/11 04:30:26;;;;;;;;;;;24.30;44.20;;;;;;1621950;73;701;-68
2022/05/11 04:32:28;;;;;;;;;;;24.20;44.10;;;;;;1619387;73;1928;-67
2022/05/11 04:34:30;;;;;;;;;;;24.20;44.20;;;;;;1616875;72;1145;-68
2022/05/11 04:36:32;;;;;;;;;;;24.30;44.40;;;;;;1610354;74;667;-67
2022/05/11 04:38:34;;;;;;;;;;;24.20;44.10;;;;;;1618338;72;678;-70
2022/05/11 04:40:36;;;;;;;;;;;24.30;44.30;;;;;;1630523;72;725;-63
2022/05/11 04:42:38;;;;;;;;;;;24.30;44.20;;;;;;1639499;71;689;-68
2022/05/11 04:44:40;;;;;;;;;;;24.30;44.30;;;;;;1622027;72;1133;-66
2022/05/11 04:46:42;;;;;;;;;;;24.30;44.20;;;;;;1615905;73;809;-69
2022/05/11 04:48:44;;;;;;;;;;;24.20;44.20;;;;;;1622064;73;653;-67
2022/05/11 04:50:46;;;;;;;;;;;24.30;44.20;;;;;;1622957;73;657;-69
2022/05/11 04:52:48;;;;;;;;;;;24.30;44.20;;;;;;1622709;73;1940;-68
2022/05/11 04:54:50;;;;;;;;;;;24.30;44.10;;;;;;1622231;72;1102;-68
2022/05/11 04:56:51;;;;;;;;;;;24.30;44.10;;;;;;1621695;73;507;-68
2022/05/11 04:58:57;;;;;;;;;;;24.30;44.20;;;;;;1621652;73;706;-68
2022/05/11 05:00:57;;;;;;;;;;;24.50;44.30;;;;;;1621743;73;1599;-69
2022/05/11 05:03:01;;;;;;;;;;;24.30;44.10;;;;;;1627080;72;654;-69
2022/05/11 05:05:05;;;;;;;;;;;24.30;44.20;;;;;;1632367;72;1926;-69
2022/05/11 05:07:06;;;;;;;;;;;24.30;44.10;;;;;;1609374;72;1395;-69
2022/05/11 05:09:09;;;;;;;;;;;24.30;44.20;;;;;;1620381;72;746;-69
2022/05/11 05:11:10;;;;;;;;;;;24.20;44.00;;;;;;1613781;73;663;-69
2022/05/11 05:13:13;;;;;;;;;;;24.30;44.10;;;;;;1622096;73;1936;-72
2022/05/11 05:15:15;;;;;;;;;;;24.20;43.90;;;;;;1620097;72;1133;-68
2022/05/11 05:17:17;;;;;;;;;;;24.30;44.10;;;;;;1621745;73;749;-73
2022/05/11 05:19:19;;;;;;;;;;;24.20;43.90;;;;;;1613863;73;1381;-68
2022/05/11 05:21:21;;;;;;;;;;;24.30;43.90;;;;;;1632286;72;615;-63
2022/05/11 05:23:23;;;;;;;;;;;24.20;43.80;;;;;;1582997;73;674;-65
2022/05/11 05:25:25;;;;;;;;;;;24.20;43.80;;;;;;1576645;74;1090;-65
2022/05/11 05:27:27;;;;;;;;;;;24.20;43.90;;;;;;1581324;72;667;-63
2022/05/11 05:31:50;;;;;;;;;;;24.20;43.90;;;;;;1621961;73;1904;-65
2022/05/11 05:33:58;;;;;;;;;;;24.30;44.00;;;;;;1622198;72;1107;-64
2022/05/11 05:35:55;;;;;;;;;;;24.20;43.90;;;;;;1619345;72;1636;-64
2022/05/11 05:37:57;;;;;;;;;;;24.20;43.90;;;;;;1618582;72;693;-66
2022/05/11 05:39:59;;;;;;;;;;;24.20;43.80;;;;;;1622042;73;768;-64
2022/05/11 05:42:01;;;;;;;;;;;24.20;43.80;;;;;;1621131;72;697;-64
2022/05/11 05:44:06;;;;;;;;;;;24.20;43.80;;;;;;1616598;72;1086;-64
2022/05/11 05:46:06;;;;;;;;;;;24.20;43.70;;;;;;1614853;73;1597;-61
2022/05/11 05:48:08;;;;;;;;;;;24.20;43.80;;;;;;1622679;73;772;-61
2022/05/11 05:50:10;;;;;;;;;;;24.30;43.80;;;;;;1622868;73;665;-63
2022/05/11 05:52:16;;;;;;;;;;;24.30;43.60;;;;;;1621596;72;1950;-63
2022/05/11 05:54:18;;;;;;;;;;;24.40;43.40;;;;;;1619168;72;1150;-63
2022/05/11 05:56:20;;;;;;;;;;;24.50;43.30;;;;;;1622000;72;1496;-63
2022/05/11 05:58:22;;;;;;;;;;;24.50;43.20;;;;;;1633255;72;695;-64
2022/05/11 06:00:23;;;;;;;;;;;24.50;43.10;;;;;;1626854;72;680;-63
2022/05/11 06:02:25;;;;;;;;;;;24.60;42.80;;;;;;1620854;73;641;-63
2022/05/11 06:04:27;;;;;;;;;;;24.60;42.50;;;;;;1594767;73;1088;-63
2022/05/11 06:06:29;;;;;;;;;;;24.70;42.40;;;;;;1610206;73;670;-65
2022/05/11 06:08:31;;;;;;;;;;;24.80;42.30;;;;;;1622389;73;1019;-63
2022/05/11 06:10:34;;;;;;;;;;;24.80;42.10;;;;;;1622848;73;648;-69
2022/05/11 06:12:36;;;;;;;;;;;24.80;41.80;;;;;;1604579;73;1915;-69
2022/05/11 06:14:38;;;;;;;;;;;24.80;41.60;;;;;;1606635;72;1084;-68
2022/05/11 06:16:40;;;;;;;;;;;24.80;41.60;;;;;;1609858;73;1384;-68
2022/05/11 06:18:42;;;;;;;;;;;24.90;41.70;;;;;;1609337;73;740;-67
2022/05/11 06:20:44;;;;;;;;;;;24.90;41.60;;;;;;1621627;73;611;-67
2022/05/11 06:22:46;;;;;;;;;;;24.90;41.60;;;;;;1623567;72;647;-68
2022/05/11 06:24:48;;;;;;;;;;;25.00;41.50;;;;;;1622252;72;1101;-68
2022/05/11 06:26:50;;;;;;;;;;;25.00;41.40;;;;;;1620818;73;648;-68
2022/05/11 06:28:52;;;;;;;;;;;25.00;41.40;;;;;;1621439;73;656;-67
2022/05/11 06:30:54;;;;;;;;;;;25.10;41.30;;;;;;1622526;73;696;-67
2022/05/11 06:32:56;;;;;;;;;;;25.10;41.20;;;;;;1609104;73;1932;-74
2022/05/11 06:34:58;;;;;;;;;;;25.20;41.10;;;;;;1622116;72;1102;-67
2022/05/11 06:37:00;;;;;;;;;;;25.20;41.00;;;;;;1622182;73;593;-68
2022/05/11 06:39:02;;;;;;;;;;;25.20;40.90;;;;;;1621973;73;705;-65
2022/05/11 06:41:09;;;;;;;;;;;25.30;40.90;;;;;;1620007;72;702;-66
2022/05/11 06:43:11;;;;;;;;;;;25.30;40.80;;;;;;1620696;73;1038;-69
2022/05/11 06:45:12;;;;;;;;;;;25.40;40.70;;;;;;1617972;72;1120;-69
2022/05/11 06:47:14;;;;;;;;;;;25.40;40.60;;;;;;1622263;73;691;-67
2022/05/11 06:49:17;;;;;;;;;;;25.40;40.60;;;;;;1623833;72;687;-65
2022/05/11 06:51:19;;;;;;;;;;;25.50;40.50;;;;;;1617888;73;743;-65
2022/05/11 06:53:21;;;;;;;;;;;25.40;40.50;;;;;;1621044;73;1920;-65
2022/05/11 07:00:03;;;;;;;;;;;25.50;40.20;;;;;;1613895;72;1657;-67
2022/05/11 07:02:06;;;;;;;;;;;25.50;40.30;;;;;;1609008;72;786;-67
2022/05/11 07:04:08;;;;;;;;;;;25.50;40.20;;;;;;1615763;72;1113;-67
2022/05/11 07:06:09;;;;;;;;;;;25.60;40.20;;;;;;1619543;73;652;-66
2022/05/11 07:08:11;;;;;;;;;;;25.50;40.20;;;;;;1615130;72;753;-68
2022/05/11 07:10:13;;;;;;;;;;;25.60;40.20;;;;;;1619090;72;724;-67
2022/05/11 07:12:20;;;;;;;;;;;25.60;40.20;;;;;;1614873;72;1924;-71
2022/05/11 07:14:22;;;;;;;;;;;25.60;40.00;;;;;;1620767;72;1090;-68
2022/05/11 07:16:24;;;;;;;;;;;25.70;40.00;;;;;;1621091;73;649;-68
2022/05/11 07:18:26;;;;;;;;;;;25.60;40.10;;;;;;1620253;72;682;-68
2022/05/11 07:20:33;;;;;;;;;;;25.60;40.20;;;;;;1617192;72;645;-72
2022/05/11 07:22:33;;;;;;;;;;;25.60;40.10;;;;;;1621042;72;1757;-70
2022/05/11 07:24:35;;;;;;;;;;;25.60;40.20;;;;;;1615741;72;1145;-68
2022/05/11 07:26:37;;;;;;;;;;;25.70;40.10;;;;;;1619547;72;742;-71
2022/05/11 07:28:40;;;;;;;;;;;25.70;40.10;;;;;;1617782;73;707;-69
2022/05/11 07:30:46;;;;;;;;;;;25.80;40.10;;;;;;1606584;73;2166;-68
2022/05/11 07:32:46;;;;;;;;;;;25.70;40.00;;;;;;1618428;72;1933;-68
2022/05/11 07:34:47;;;;;;;;;;;25.80;40.00;;;;;;1622573;72;1141;-71
2022/05/11 07:36:54;;;;;;;;;;;25.80;40.00;;;;;;1622266;72;711;-68
2022/05/11 07:38:53;;;;;;;;;;;25.80;39.90;;;;;;1620261;73;1550;-71
2022/05/11 07:40:55;;;;;;;;;;;25.80;39.90;;;;;;1622863;73;698;-67
2022/05/11 07:42:57;;;;;;;;;;;25.80;39.80;;;;;;1622460;73;681;-68
2022/05/11 07:44:59;;;;;;;;;;;25.80;39.80;;;;;;1604871;70;231588;-70
2022/05/11 07:47:01;;;;;;;;;;;25.90;39.70;;;;;;1575704;75;705;-71
2022/05/11 07:49:03;;;;;;;;;;;25.90;39.70;;;;;;1577389;75;1323;-70
2022/05/11 07:51:05;;;;;;;;;;;25.90;39.60;;;;;;1572739;74;671;-71
2022/05/11 07:53:07;;;;;;;;;;;25.80;39.60;;;;;;1572798;74;1931;-71
2022/05/11 07:55:09;;;;;;;;;;;25.90;39.70;;;;;;1560324;75;1192;-70
2022/05/11 08:01:51;;;;;;;;;;;25.80;39.70;;;;;;1536938;75;745;-70
2022/05/11 08:03:53;;;;;;;;;;;25.80;39.70;;;;;;1558197;75;881;-70
2022/05/11 08:05:55;;;;;;;;;;;25.90;39.60;;;;;;1550953;75;1081;-70
2022/05/11 08:07:58;;;;;;;;;;;25.80;39.60;;;;;;1514968;77;1381;-70
2022/05/11 08:10:00;;;;;;;;;;;25.90;39.60;;;;;;1538415;75;693;-70
2022/05/11 08:12:02;;;;;;;;;;;25.80;39.60;;;;;;1546650;75;689;-70
2022/05/11 08:14:04;;;;;;;;;;;25.90;39.70;;;;;;1542012;75;1943;-70
2022/05/11 08:16:05;;;;;;;;;;;25.80;39.70;;;;;;1551986;75;1112;-70
2022/05/11 08:18:07;;;;;;;;;;;25.80;39.70;;;;;;1550524;75;748;-71
2022/05/11 08:20:14;;;;;;;;;;;25.80;39.70;;;;;;1544140;75;570;-69
2022/05/11 08:22:14;;;;;;;;;;;25.90;39.70;;;;;;1511061;77;1590;-71
2022/05/11 08:24:16;;;;;;;;;;;25.80;39.70;;;;;;1540592;75;684;-70
2022/05/11 08:26:18;;;;;;;;;;;25.80;39.70;;;;;;1546411;75;759;-71
2022/05/11 08:28:21;;;;;;;;;;;25.90;39.60;;;;;;1543820;75;657;-70
2022/05/11 08:35:03;;;;;;;;;;;25.80;39.70;;;;;;1540293;75;1646;-70
2022/05/11 08:37:05;;;;;;;;;;;25.80;39.70;;;;;;1544082;75;689;-70
2022/05/11 08:39:07;;;;;;;;;;;25.80;39.70;;;;;;1548858;75;759;-70
2022/05/11 08:41:13;;;;;;;;;;;25.90;39.70;;;;;;1545531;75;754;-69
2022/05/11 08:43:16;;;;;;;;;;;25.90;39.70;;;;;;1537746;75;772;-70
2022/05/11 08:45:18;;;;;;;;;;;25.80;39.70;;;;;;1541369;75;1593;-70
2022/05/11 08:47:30;;;;;;;;;;;25.80;39.70;;;;;;1558999;75;655;-70
2022/05/11 08:49:36;;;;;;;;;;;25.80;39.70;;;;;;1546922;75;1995;-70
2022/05/11 08:51:56;;;;;;;;;;;25.80;39.70;;;;;;1540485;75;1511;-70
2022/05/11 08:54:00;;;;;;;;;;;25.90;39.70;;;;;;1541827;75;1910;-70
2022/05/11 08:56:04;;;;;;;;;;;25.80;39.80;;;;;;1546468;75;1865;-71
2022/05/11 08:58:14;;;;;;;;;;;25.90;39.80;;;;;;1541015;75;655;-70
2022/05/11 09:00:16;;;;;;;;;;;25.80;39.80;;;;;;1544914;75;649;-70
2022/05/11 09:02:19;;;;;;;;;;;25.90;39.80;;;;;;1549112;75;640;-70
2022/05/11 09:04:25;;;;;;;;;;;25.80;39.70;;;;;;1554050;75;1449;-71
2022/05/11 09:06:28;;;;;;;;;;;25.90;39.70;;;;;;1535584;75;605;-71
2022/05/11 09:08:30;;;;;;;;;;;25.80;39.60;;;;;;1530679;75;753;-70
2022/05/11 09:10:35;;;;;;;;;;;25.80;39.70;;;;;;1511427;78;1262;-69
2022/05/11 09:12:37;;;;;;;;;;;25.90;39.60;;;;;;1536577;75;946;-69
2022/05/11 09:14:40;;;;;;;;;;;25.70;39.60;;;;;;1528339;75;1951;-70
2022/05/11 09:16:43;;;;;;;;;;;25.70;39.60;;;;;;1537475;75;684;-68
2022/05/11 09:18:45;;;;;;;;;;;25.70;39.60;;;;;;1546384;75;588;-70
2022/05/11 09:20:50;;;;;;;;;;;25.70;39.50;;;;;;1548630;75;677;-70
2022/05/11 09:22:58;;;;;;;;;;;25.70;39.50;;;;;;1551731;75;715;-71
2022/05/11 09:25:01;;;;;;;;;;;25.70;39.40;;;;;;1545408;74;1509;-69
2022/05/11 09:27:07;;;;;;;;;;;25.60;39.50;;;;;;1546868;75;757;-69
2022/05/11 09:29:13;;;;;;;;;;;25.60;39.50;;;;;;1535537;75;727;-69
2022/05/11 09:31:19;;;;;;;;;;;25.60;39.50;;;;;;1541048;75;791;-69
2022/05/11 09:33:25;;;;;;;;;;;25.60;39.50;;;;;;1540408;75;1947;-71
2022/05/11 09:35:28;;;;;;;;;;;25.60;39.40;;;;;;1547279;75;1128;-69
2022/05/11 09:37:35;;;;;;;;;;;25.60;39.50;;;;;;1540126;75;1859;-69
2022/05/11 09:39:37;;;;;;;;;;;25.50;39.50;;;;;;1530856;75;1663;-69
2022/05/11 09:41:40;;;;;;;;;;;25.60;39.50;;;;;;1507842;77;1635;-69
2022/05/11 09:43:43;;;;;;;;;;;25.60;39.50;;;;;;1528037;75;701;-70
2022/05/11 09:45:47;;;;;;;;;;;25.50;39.50;;;;;;1544862;75;1138;-69
2022/05/11 09:48:02;;;;;;;;;;;25.50;39.40;;;;;;1556943;75;829;-68
2022/05/11 09:49:55;;;;;;;;;;;25.50;39.40;;;;;;1549694;75;1619;-71
2022/05/11 09:51:57;;;;;;;;;;;25.50;39.50;;;;;;1556676;75;781;-68
2022/05/11 09:54:04;;;;;;;;;;;25.50;39.50;;;;;;1535895;75;1929;-70
2022/05/11 09:56:16;;;;;;;;;;;25.40;39.50;;;;;;1540980;75;1839;-69
2022/05/11 09:58:23;;;;;;;;;;;25.40;39.40;;;;;;1510838;75;1194;-68
2022/05/11 10:00:29;;;;;;;;;;;25.40;39.40;;;;;;1540654;75;1407;-70
2022/05/11 10:02:34;;;;;;;;;;;25.40;39.40;;;;;;1551342;75;1802;-70
2022/05/11 10:04:37;;;;;;;;;;;25.50;39.30;;;;;;1542898;75;1821;-70
2022/05/11 10:06:41;;;;;;;;;;;25.40;39.30;;;;;;1526847;75;707;-69
2022/05/11 10:08:44;;;;;;;;;;;25.40;39.20;;;;;;1538249;75;1495;-70
2022/05/11 10:10:47;;;;;;;;;;;25.40;39.20;;;;;;1550816;75;676;-71
2022/05/11 10:12:49;;;;;;;;;;;25.30;39.20;;;;;;1535939;75;688;-71
2022/05/11 10:21:58;;;;;;;;;;;25.30;39.20;;;;;;1546012;75;627;-69
2022/05/11 10:24:14;;;;;;;;;;;25.30;39.20;;;;;;1544352;75;1922;-70
2022/05/11 10:26:17;;;;;;;;;;;25.30;39.20;;;;;;1549526;75;1905;-70
2022/05/11 10:28:30;;;;;;;;;;;25.20;39.20;;;;;;1545271;75;902;-69
2022/05/11 10:30:50;;;;;;;;;;;25.20;39.20;;;;;;1540010;75;755;-69
2022/05/11 10:33:10;;;;;;;;;;;25.20;39.20;;;;;;1537166;75;749;-71
2022/05/11 10:35:30;;;;;;;;;;;25.20;39.20;;;;;;1532340;75;1117;-71
2022/05/11 10:37:33;;;;;;;;;;;25.20;39.20;;;;;;1540253;75;765;-71
2022/05/11 10:39:37;;;;;;;;;;;25.10;39.30;;;;;;1531982;75;693;-69
2022/05/11 10:41:52;;;;;;;;;;;25.20;39.30;;;;;;1532056;75;684;-69
2022/05/11 10:43:58;;;;;;;;;;;25.10;39.20;;;;;;1535233;75;731;-69
2022/05/11 10:46:02;;;;;;;;;;;25.10;39.30;;;;;;1540479;75;1558;-69
2022/05/11 10:48:05;;;;;;;;;;;25.10;39.30;;;;;;1541620;75;1713;-70
2022/05/11 10:50:14;;;;;;;;;;;25.10;39.30;;;;;;1542585;75;937;-70
2022/05/11 10:52:27;;;;;;;;;;;25.10;39.30;;;;;;1547105;75;1103;-70
2022/05/11 10:54:46;;;;;;;;;;;25.10;39.30;;;;;;1546261;75;1947;-70
2022/05/11 10:56:49;;;;;;;;;;;25.10;39.30;;;;;;1540157;75;1518;-70
2022/05/11 10:58:59;;;;;;;;;;;25.10;39.30;;;;;;1536942;75;1495;-70
2022/05/11 11:01:03;;;;;;;;;;;25.00;39.30;;;;;;1550954;75;756;-71
2022/05/11 11:03:06;;;;;;;;;;;25.00;39.30;;;;;;1543715;75;1975;-71
2022/05/11 11:05:22;;;;;;;;;;;25.00;39.40;;;;;;1546625;75;1842;-69
2022/05/11 11:07:26;;;;;;;;;;;25.00;39.40;;;;;;1543865;75;1817;-69
2022/05/11 11:09:33;;;;;;;;;;;25.00;39.40;;;;;;1535006;75;1628;-69
2022/05/11 11:11:39;;;;;;;;;;;25.00;39.40;;;;;;1536952;75;1947;-72
2022/05/11 11:13:54;;;;;;;;;;;25.00;39.40;;;;;;1544375;75;1937;-70
2022/05/11 11:15:57;;;;;;;;;;;25.00;39.40;;;;;;1543438;75;1153;-69
2022/05/11 11:17:59;;;;;;;;;;;25.00;39.40;;;;;;1547490;75;669;-70
2022/05/11 11:20:02;;;;;;;;;;;24.90;39.30;;;;;;1540232;75;713;-69
2022/05/11 11:22:05;;;;;;;;;;;25.00;39.40;;;;;;1539522;75;679;-71
2022/05/11 11:24:11;;;;;;;;;;;24.90;39.40;;;;;;1536755;75;1463;-70
2022/05/11 11:26:13;;;;;;;;;;;24.90;39.40;;;;;;1537896;75;1069;-71
2022/05/11 11:28:16;;;;;;;;;;;24.90;39.40;;;;;;1535082;75;774;-70
2022/05/11 11:30:19;;;;;;;;;;;24.90;39.40;;;;;;1534779;75;687;-69
2022/05/11 11:32:21;;;;;;;;;;;25.00;39.40;;;;;;1533774;75;2321;-68
2022/05/11 11:34:25;;;;;;;;;;;24.80;39.20;;;;;;1536685;75;1940;-69
2022/05/11 11:36:28;;;;;;;;;;;24.90;39.40;;;;;;1532167;75;1507;-69
2022/05/11 11:38:31;;;;;;;;;;;24.90;39.40;;;;;;1536479;75;733;-69
2022/05/11 11:40:33;;;;;;;;;;;24.80;39.30;;;;;;1532827;75;736;-69
2022/05/11 11:42:37;;;;;;;;;;;24.90;39.50;;;;;;1537735;75;784;-67
2022/05/11 11:44:47;;;;;;;;;;;24.80;39.40;;;;;;1544150;75;1132;-69
2022/05/11 11:46:50;;;;;;;;;;;24.80;39.40;;;;;;1535233;75;831;-68
2022/05/11 11:48:52;;;;;;;;;;;24.90;39.50;;;;;;1529955;75;762;-70
2022/05/11 11:51:01;;;;;;;;;;;24.80;39.40;;;;;;1503565;78;1176;-69
2022/05/11 11:53:05;;;;;;;;;;;24.80;39.40;;;;;;1533339;75;1780;-70
2022/05/11 11:55:21;;;;;;;;;;;24.80;39.40;;;;;;1534255;75;1940;-68
2022/05/11 11:57:24;;;;;;;;;;;24.80;39.40;;;;;;1539657;75;715;-69
2022/05/11 11:59:28;;;;;;;;;;;24.80;39.40;;;;;;1546789;75;648;-69
2022/05/11 12:01:31;;;;;;;;;;;24.80;39.40;;;;;;1539788;75;711;-69
2022/05/11 12:03:34;;;;;;;;;;;24.80;39.40;;;;;;1547792;75;676;-70
2022/05/11 12:05:47;;;;;;;;;;;24.80;39.40;;;;;;1548119;75;1165;-69
2022/05/11 12:15:23;;;;;;;;;;;24.70;39.40;;;;;;1545150;75;1901;-72
2022/05/11 12:17:27;;;;;;;;;;;24.70;39.50;;;;;;1538922;75;1065;-72
2022/05/11 12:19:35;;;;;;;;;;;24.70;39.40;;;;;;1528314;75;680;-71
2022/05/11 12:21:38;;;;;;;;;;;24.70;39.50;;;;;;1551060;75;601;-70
2022/05/11 12:23:40;;;;;;;;;;;24.70;39.50;;;;;;1550210;75;684;-70
2022/05/11 12:25:44;;;;;;;;;;;24.70;39.50;;;;;;1547434;75;1123;-70
2022/05/11 12:27:46;;;;;;;;;;;24.70;39.50;;;;;;1548484;75;1722;-70
2022/05/11 12:29:59;;;;;;;;;;;24.70;39.50;;;;;;1545450;75;663;-71
2022/05/11 12:31:59;;;;;;;;;;;24.70;39.60;;;;;;1551837;75;1609;-72
2022/05/11 12:34:01;;;;;;;;;;;24.70;39.50;;;;;;1545893;75;1920;-71
2022/05/11 12:36:03;;;;;;;;;;;24.70;39.60;;;;;;1539828;75;1094;-70
2022/05/11 12:38:06;;;;;;;;;;;24.70;39.60;;;;;;1540231;75;659;-70
2022/05/11 12:40:13;;;;;;;;;;;24.70;39.40;;;;;;1534222;75;644;-70
2022/05/11 12:42:13;;;;;;;;;;;24.70;39.40;;;;;;1532838;75;1412;-72
2022/05/11 12:44:17;;;;;;;;;;;24.70;39.40;;;;;;1551723;75;615;-69
2022/05/11 12:46:19;;;;;;;;;;;24.60;39.30;;;;;;1548775;75;1808;-68
2022/05/11 12:48:22;;;;;;;;;;;24.70;39.40;;;;;;1542894;75;871;-70
2022/05/11 12:50:31;;;;;;;;;;;24.60;39.20;;;;;;1539877;75;1788;-70
2022/05/11 12:52:34;;;;;;;;;;;24.60;39.30;;;;;;1549993;75;729;-70